createdAt,value
2023-03-23T15:59:14.422Z,57.09
2023-03-23T16:01:43.430Z,56.53
2023-03-23T16:04:15.631Z,56.55
2023-03-23T16:06:44.538Z,57.02
2023-03-23T16:09:16.892Z,56.61
2023-03-23T16:11:43.996Z,56.65
2023-03-23T16:14:11.715Z,56.84
2023-03-23T16:16:50.804Z,57.27
2023-03-23T16:19:20.541Z,57.33
2023-03-23T16:21:47.653Z,58.17
2023-03-23T16:24:14.893Z,58.60
2023-03-23T16:26:41.848Z,58.73
2023-03-23T16:29:28.280Z,59.25
2023-03-23T16:32:01.632Z,59.40
2023-03-23T16:34:33.117Z,60.39
2023-03-23T16:37:00.344Z,61.17
2023-03-23T16:39:27.847Z,62.34
2023-03-23T16:41:54.967Z,62.17
2023-03-23T16:44:22.324Z,63.01
2023-03-23T16:46:49.263Z,63.88
2023-03-23T16:49:16.772Z,63.56
2023-03-23T16:51:43.705Z,63.88
2023-03-23T16:54:11.016Z,63.14
2023-03-23T16:56:38.579Z,62.88
2023-03-23T16:59:06.096Z,62.85
2023-03-23T17:01:33.147Z,63.39
2023-03-23T17:04:00.503Z,63.07
2023-03-23T17:06:27.640Z,63.27
2023-03-23T17:08:55.076Z,63.48
2023-03-23T17:11:22.111Z,64.20
2023-03-23T17:13:49.801Z,64.40
2023-03-23T17:16:16.736Z,64.90
2023-03-23T17:18:44.082Z,65.31
2023-03-23T17:21:11.206Z,65.20
2023-03-23T17:23:38.377Z,65.66
2023-03-23T17:26:05.948Z,65.77
2023-03-23T17:28:33.193Z,65.56
2023-03-23T17:31:00.492Z,66.03
2023-03-23T17:33:27.912Z,66.27
2023-03-23T17:35:55.167Z,66.29
2023-03-23T17:38:22.530Z,65.98
2023-03-23T17:40:57.188Z,66.10
2023-03-23T17:43:24.348Z,66.45
2023-03-23T17:45:51.298Z,66.56
2023-03-23T17:48:18.578Z,66.95
2023-03-23T17:50:49.547Z,67.05
2023-03-23T17:53:18.546Z,66.90
2023-03-23T17:55:46.414Z,67.00
2023-03-23T17:58:13.695Z,67.42
2023-03-23T18:00:40.645Z,67.37
2023-03-23T18:03:07.857Z,68.13
2023-03-23T18:05:35.652Z,68.07
2023-03-23T18:08:02.909Z,68.17
2023-03-23T18:10:29.966Z,68.19
2023-03-23T18:12:57.287Z,68.59
2023-03-23T18:15:28.263Z,68.66
2023-03-23T18:17:57.374Z,68.91
2023-03-23T18:20:24.421Z,69.25
2023-03-23T18:22:51.803Z,69.13
2023-03-23T18:25:19.311Z,69.24
2023-03-23T18:27:47.023Z,69.27
2023-03-23T18:30:14.185Z,69.09
2023-03-23T18:32:42.654Z,69.33
2023-03-23T18:35:11.255Z,69.40
2023-03-23T18:37:39.665Z,69.40
2023-03-23T18:40:10.914Z,69.33
2023-03-23T18:42:39.831Z,69.50
2023-03-23T18:45:07.621Z,69.58
2023-03-23T18:47:37.450Z,69.41
2023-03-23T18:50:09.377Z,69.14
2023-03-23T18:52:37.032Z,69.16
2023-03-23T18:55:04.433Z,69.33
2023-03-23T18:57:31.966Z,69.51
2023-03-23T18:59:59.010Z,69.51
2023-03-23T19:02:26.685Z,68.88
2023-03-23T19:04:53.930Z,69.03
2023-03-23T19:07:21.585Z,69.25
2023-03-23T19:09:48.557Z,67.87
2023-03-23T19:12:16.086Z,67.56
2023-03-23T19:14:43.926Z,66.97
2023-03-23T19:17:11.317Z,66.88
2023-03-23T19:19:38.828Z,66.32
2023-03-23T19:22:08.784Z,66.35
2023-03-23T19:24:36.497Z,65.48
2023-03-23T19:27:03.952Z,65.61
2023-03-23T19:29:31.323Z,65.34
2023-03-23T19:31:58.774Z,65.31
2023-03-23T19:34:28.151Z,65.14
2023-03-23T19:37:04.775Z,65.14
2023-03-23T19:39:34.166Z,64.82
2023-03-23T19:42:01.817Z,64.80
2023-03-23T19:44:29.150Z,64.55
2023-03-23T19:46:56.758Z,64.50
2023-03-23T19:49:25.098Z,64.04
2023-03-23T19:52:06.370Z,64.09
2023-03-23T19:54:38.614Z,64.49
2023-03-23T19:57:06.645Z,65.00
2023-03-23T19:59:33.988Z,65.01
2023-03-23T20:02:01.663Z,65.42
2023-03-23T20:04:29.316Z,65.50
2023-03-23T20:06:57.177Z,65.67
2023-03-23T20:09:25.301Z,65.66
2023-03-23T20:11:53.686Z,65.56
2023-03-23T20:14:21.004Z,65.93
2023-03-23T20:16:48.606Z,65.73
2023-03-23T20:19:15.574Z,66.16
2023-03-23T20:21:42.913Z,66.70
2023-03-23T20:24:09.887Z,67.17
2023-03-23T20:26:41.139Z,67.69
2023-03-23T20:29:08.177Z,68.24
2023-03-23T20:31:41.560Z,69.03
2023-03-23T20:34:11.561Z,69.27
2023-03-23T20:36:46.090Z,70.52
2023-03-23T20:39:19.058Z,71.32
2023-03-23T20:41:47.658Z,71.99
2023-03-23T20:44:15.939Z,72.33
2023-03-23T20:46:47.917Z,73.32
2023-03-23T20:49:16.271Z,73.42
2023-03-23T20:51:44.825Z,73.78
2023-03-23T20:54:15.635Z,74.22
2023-03-23T20:56:44.235Z,74.55
2023-03-23T20:59:12.685Z,74.80
2023-03-23T21:01:40.478Z,74.81
2023-03-23T21:04:15.139Z,75.31
2023-03-23T21:06:44.390Z,75.73
2023-03-23T21:09:12.272Z,76.15
2023-03-23T21:11:39.909Z,76.40
2023-03-23T21:14:06.909Z,76.70
2023-03-23T21:16:34.875Z,76.96
2023-03-23T21:19:04.279Z,77.15
2023-03-23T21:21:31.629Z,77.18
2023-03-23T21:23:58.876Z,77.29
2023-03-23T21:26:29.068Z,77.37
2023-03-23T21:28:59.981Z,77.47
2023-03-23T21:31:30.662Z,77.69
2023-03-23T21:33:58.861Z,77.66
2023-03-23T21:36:27.537Z,77.85
2023-03-23T21:38:55.478Z,77.91
2023-03-23T21:41:23.262Z,77.93
2023-03-23T21:43:50.441Z,77.86
2023-03-23T21:46:18.586Z,78.26
2023-03-23T21:48:51.001Z,78.18
2023-03-23T21:51:28.197Z,78.20
2023-03-23T21:53:56.277Z,78.34
2023-03-23T21:56:27.325Z,78.37
2023-03-23T21:58:56.635Z,78.41
2023-03-23T22:01:24.774Z,78.50
2023-03-23T22:03:51.990Z,78.50
2023-03-23T22:06:25.230Z,78.59
2023-03-23T22:08:53.454Z,78.64
2023-03-23T22:11:23.788Z,78.79
2023-03-23T22:13:53.312Z,79.27
2023-03-23T22:16:21.997Z,79.42
2023-03-23T22:18:51.282Z,79.74
2023-03-23T22:21:20.118Z,80.14
2023-03-23T22:23:47.205Z,80.34
2023-03-23T22:26:16.574Z,80.64
2023-03-23T22:28:46.513Z,80.65
2023-03-23T22:31:18.765Z,80.73
2023-03-23T22:33:47.769Z,80.93
2023-03-23T22:36:17.213Z,80.83
2023-03-23T22:38:46.314Z,80.92
2023-03-23T22:41:18.693Z,80.97
2023-03-23T22:43:46.129Z,80.81
2023-03-23T22:46:14.296Z,80.75
2023-03-23T22:48:42.017Z,80.72
2023-03-23T22:51:09.839Z,80.67
2023-03-23T22:53:36.925Z,80.51
2023-03-23T22:56:04.733Z,80.42
2023-03-23T22:58:31.945Z,80.32
2023-03-23T23:01:07.166Z,79.81
2023-03-23T23:03:35.385Z,79.48
2023-03-23T23:06:03.163Z,79.50
2023-03-23T23:08:32.050Z,79.13
2023-03-23T23:11:01.287Z,78.98
2023-03-23T23:13:29.821Z,78.53
2023-03-23T23:15:59.793Z,78.45
2023-03-23T23:18:27.754Z,77.82
2023-03-23T23:20:57.058Z,76.56
2023-03-23T23:23:24.905Z,76.37
2023-03-23T23:25:52.745Z,76.42
2023-03-23T23:28:20.767Z,76.32
2023-03-23T23:30:48.776Z,76.32
2023-03-23T23:33:16.095Z,76.29
2023-03-23T23:35:43.276Z,75.25
2023-03-23T23:38:12.519Z,74.98
2023-03-23T23:40:43.021Z,74.84
2023-03-23T23:43:15.411Z,74.75
2023-03-23T23:45:43.661Z,75.02
2023-03-23T23:48:11.236Z,75.20
2023-03-23T23:50:38.791Z,75.51
2023-03-23T23:53:05.827Z,75.58
2023-03-23T23:55:33.124Z,75.98
2023-03-23T23:58:00.377Z,76.12
